createdAt,value
2022-08-23T00:00:31.402Z,20.61
2022-08-23T00:01:31.455Z,20.63
2022-08-23T00:02:31.422Z,20.61
2022-08-23T00:03:31.372Z,20.60
2022-08-23T00:04:34.959Z,20.58
2022-08-23T00:05:31.341Z,20.56
2022-08-23T00:06:31.334Z,20.54
2022-08-23T00:07:34.137Z,20.53
2022-08-23T00:08:32.316Z,20.50
2022-08-23T00:09:31.315Z,20.46
2022-08-23T00:10:31.314Z,20.41
2022-08-23T00:11:31.272Z,20.38
2022-08-23T00:12:31.258Z,20.37
2022-08-23T00:13:47.560Z,20.35
2022-08-23T00:14:32.276Z,20.35
2022-08-23T00:15:31.264Z,20.34
2022-08-23T00:16:31.208Z,20.31
2022-08-23T00:17:34.015Z,20.26
2022-08-23T00:18:31.207Z,20.26
2022-08-23T00:19:31.218Z,20.23
2022-08-23T00:20:31.189Z,20.22
2022-08-23T00:21:31.166Z,20.20
2022-08-23T00:22:31.163Z,20.20
2022-08-23T00:23:31.148Z,20.15
2022-08-23T00:24:31.139Z,20.15
2022-08-23T00:25:31.171Z,20.10
2022-08-23T00:26:31.119Z,20.07
2022-08-23T00:27:31.120Z,20.07
2022-08-23T00:28:31.120Z,20.05
2022-08-23T00:29:31.080Z,20.02
2022-08-23T00:30:31.090Z,20.02
2022-08-23T00:31:31.064Z,20.00
2022-08-23T00:32:31.042Z,19.98
2022-08-23T00:33:31.042Z,19.97
2022-08-23T00:34:31.021Z,19.97
2022-08-23T00:35:31.309Z,19.92
2022-08-23T00:36:31.025Z,19.89
2022-08-23T00:37:30.992Z,19.87
2022-08-23T00:38:34.110Z,19.87
2022-08-23T00:39:30.991Z,19.87
2022-08-23T00:40:30.964Z,19.87
2022-08-23T00:41:30.984Z,19.86
2022-08-23T00:42:30.939Z,19.85
2022-08-23T00:43:30.946Z,19.82
2022-08-23T00:44:30.931Z,19.79
2022-08-23T00:45:30.915Z,19.75
2022-08-23T00:46:30.915Z,19.76
2022-08-23T00:47:30.905Z,19.75
2022-08-23T00:48:30.866Z,19.72
2022-08-23T00:49:30.887Z,19.72
2022-08-23T00:50:30.857Z,19.70
2022-08-23T00:51:30.933Z,19.68
2022-08-23T00:52:31.825Z,19.68
2022-08-23T00:53:31.107Z,19.65
2022-08-23T00:54:30.828Z,19.64
2022-08-23T00:55:30.807Z,19.62
2022-08-23T00:56:30.817Z,19.58
2022-08-23T00:57:30.775Z,19.57
2022-08-23T00:58:30.758Z,19.57
2022-08-23T00:59:30.769Z,19.55
2022-08-23T01:00:30.751Z,19.55
2022-08-23T01:01:30.760Z,19.57
2022-08-23T01:02:30.750Z,19.55
2022-08-23T01:03:30.728Z,19.53
2022-08-23T01:04:31.689Z,19.52
2022-08-23T01:05:30.680Z,19.49
2022-08-23T01:06:30.702Z,19.46
2022-08-23T01:07:30.671Z,19.45
2022-08-23T01:08:30.659Z,19.42
2022-08-23T01:09:30.642Z,19.40
2022-08-23T01:10:30.632Z,19.35
2022-08-23T01:11:30.633Z,19.32
2022-08-23T01:12:32.753Z,19.32
2022-08-23T01:13:30.619Z,19.31
2022-08-23T01:14:30.596Z,19.31
2022-08-23T01:15:30.593Z,19.28
2022-08-23T01:16:30.572Z,19.28
2022-08-23T01:17:30.575Z,19.27
2022-08-23T01:18:30.564Z,19.24
2022-08-23T01:19:31.827Z,19.23
2022-08-23T01:20:30.534Z,19.23
2022-08-23T01:21:30.535Z,19.20
2022-08-23T01:22:30.515Z,19.21
2022-08-23T01:23:30.505Z,19.20
2022-08-23T01:24:48.019Z,19.20
2022-08-23T01:25:31.502Z,19.17
2022-08-23T01:26:30.456Z,19.15
2022-08-23T01:27:30.464Z,19.13
2022-08-23T01:28:30.447Z,19.13
2022-08-23T01:29:30.426Z,19.10
2022-08-23T01:30:30.467Z,19.10
2022-08-23T01:31:30.407Z,19.10
2022-08-23T01:32:30.426Z,19.09
2022-08-23T01:33:30.378Z,19.06
2022-08-23T01:34:30.391Z,19.02
2022-08-23T01:35:30.371Z,18.99
2022-08-23T01:36:30.369Z,18.94
2022-08-23T01:37:30.339Z,18.94
2022-08-23T01:38:30.426Z,18.93
2022-08-23T01:39:30.330Z,18.93
2022-08-23T01:40:30.322Z,18.91
2022-08-23T01:41:30.311Z,18.89
2022-08-23T01:42:30.291Z,18.89
2022-08-23T01:43:30.288Z,18.87
2022-08-23T01:44:30.280Z,18.84
2022-08-23T01:45:30.261Z,18.84
2022-08-23T01:46:30.271Z,18.82
2022-08-23T01:47:30.228Z,18.82
2022-08-23T01:48:30.222Z,18.79
2022-08-23T01:49:30.224Z,18.76
2022-08-23T01:50:30.268Z,18.72
2022-08-23T01:51:30.213Z,18.72
2022-08-23T01:52:30.172Z,18.71
2022-08-23T01:53:30.182Z,18.69
2022-08-23T01:54:30.322Z,18.71
2022-08-23T01:55:30.154Z,18.69
2022-08-23T01:56:39.236Z,18.68
2022-08-23T01:57:31.134Z,18.68
2022-08-23T01:58:30.123Z,18.64
2022-08-23T01:59:30.125Z,18.65
2022-08-23T02:00:30.096Z,18.60
2022-08-23T02:01:30.104Z,18.59
2022-08-23T02:02:30.065Z,18.56
2022-08-23T02:03:30.067Z,18.51
2022-08-23T02:04:30.076Z,18.47
2022-08-23T02:05:30.046Z,18.44
2022-08-23T02:06:30.028Z,18.44
2022-08-23T02:07:30.036Z,18.41
2022-08-23T02:08:30.044Z,18.41
2022-08-23T02:09:29.999Z,18.39
2022-08-23T02:10:29.987Z,18.39
2022-08-23T02:11:29.977Z,18.39
2022-08-23T02:12:29.972Z,18.39
2022-08-23T02:13:29.969Z,18.36
2022-08-23T02:14:30.039Z,18.36
2022-08-23T02:15:29.972Z,18.36
2022-08-23T02:16:29.958Z,18.36
2022-08-23T02:17:29.921Z,18.35
2022-08-23T02:18:29.919Z,18.34
2022-08-23T02:19:29.880Z,18.32
2022-08-23T02:20:29.890Z,18.31
2022-08-23T02:21:29.870Z,18.31
2022-08-23T02:22:29.890Z,18.28
2022-08-23T02:23:29.841Z,18.28
2022-08-23T02:24:29.841Z,18.26
2022-08-23T02:25:29.831Z,18.25
2022-08-23T02:26:31.319Z,18.26
2022-08-23T02:27:29.830Z,18.25
2022-08-23T02:28:29.801Z,18.25
2022-08-23T02:29:29.838Z,18.23
2022-08-23T02:30:29.770Z,18.23
2022-08-23T02:31:29.751Z,18.19
2022-08-23T02:32:29.772Z,18.20
2022-08-23T02:33:29.744Z,18.19
2022-08-23T02:36:54.887Z,18.16
2022-08-23T02:37:55.054Z,18.13
2022-08-23T02:38:54.873Z,18.11
2022-08-23T02:39:54.862Z,18.07
2022-08-23T02:41:00.797Z,18.09
2022-08-23T02:41:55.800Z,18.09
2022-08-23T02:42:54.811Z,18.07
2022-08-23T02:43:54.772Z,18.05
2022-08-23T02:44:54.783Z,18.02
2022-08-23T02:45:54.769Z,17.99
2022-08-23T02:46:54.753Z,17.98
2022-08-23T02:47:54.739Z,17.96
2022-08-23T02:48:54.731Z,17.92
2022-08-23T02:49:54.734Z,17.91
2022-08-23T02:50:54.741Z,17.94
2022-08-23T02:51:54.692Z,17.92
2022-08-23T02:52:54.711Z,17.92
2022-08-23T02:53:54.674Z,17.94
2022-08-23T02:54:58.064Z,17.94
2022-08-23T02:55:54.660Z,17.94
2022-08-23T02:56:54.675Z,17.94
2022-08-23T02:57:54.625Z,17.95
2022-08-23T02:58:54.948Z,17.94
2022-08-23T02:59:54.645Z,17.94
2022-08-23T03:00:54.598Z,17.94
2022-08-23T03:01:54.646Z,17.95
2022-08-23T03:02:54.590Z,17.94
2022-08-23T03:03:54.573Z,17.95
2022-08-23T03:04:54.566Z,17.96
2022-08-23T03:05:54.538Z,17.94
2022-08-23T03:06:54.561Z,17.94
2022-08-23T03:07:54.530Z,17.92
2022-08-23T03:08:54.566Z,17.91
2022-08-23T03:09:54.617Z,17.91
2022-08-23T03:10:54.499Z,17.91
2022-08-23T03:11:54.490Z,17.92
2022-08-23T03:12:54.490Z,17.91
2022-08-23T03:13:54.450Z,17.89
2022-08-23T03:14:54.504Z,17.89
2022-08-23T03:15:54.439Z,17.87
2022-08-23T03:16:54.439Z,17.86
2022-08-23T03:17:54.430Z,17.84
2022-08-23T03:18:54.420Z,17.84
2022-08-23T03:19:54.401Z,17.83
2022-08-23T03:20:54.402Z,17.83
2022-08-23T03:21:54.384Z,17.83
2022-08-23T03:22:55.061Z,17.80
2022-08-23T03:23:54.362Z,17.79
2022-08-23T03:24:54.404Z,17.77
2022-08-23T03:25:54.361Z,17.76
2022-08-23T03:26:54.333Z,17.73
2022-08-23T03:27:54.357Z,17.71
2022-08-23T03:28:54.316Z,17.70
2022-08-23T03:29:54.295Z,17.68
2022-08-23T03:30:54.288Z,17.66
2022-08-23T03:31:54.249Z,17.68
2022-08-23T03:32:54.237Z,17.68
2022-08-23T03:33:54.248Z,17.66
2022-08-23T03:34:54.217Z,17.68
2022-08-23T03:35:54.199Z,17.66
2022-08-23T03:36:54.219Z,17.63
2022-08-23T03:37:55.298Z,17.62
2022-08-23T03:38:54.172Z,17.60
2022-08-23T03:39:54.222Z,17.58
2022-08-23T03:40:54.150Z,17.57
2022-08-23T03:41:54.152Z,17.55
2022-08-23T03:42:54.140Z,17.54
2022-08-23T03:43:54.112Z,17.54
2022-08-23T03:45:00.696Z,17.55
2022-08-23T03:45:55.107Z,17.55
2022-08-23T03:46:54.101Z,17.54
2022-08-23T03:47:54.072Z,17.54
2022-08-23T03:48:54.082Z,17.54
2022-08-23T03:49:54.061Z,17.53
2022-08-23T03:50:54.756Z,17.53
2022-08-23T03:51:54.045Z,17.54
2022-08-23T03:52:54.014Z,17.51
2022-08-23T03:53:54.012Z,17.51
2022-08-23T03:54:54.023Z,17.49
2022-08-23T03:55:53.993Z,17.47
2022-08-23T03:56:53.985Z,17.46
2022-08-23T03:57:53.955Z,17.45
2022-08-23T03:58:53.975Z,17.42
2022-08-23T03:59:53.942Z,17.40
2022-08-23T04:00:53.945Z,17.39
2022-08-23T04:01:53.957Z,17.38
2022-08-23T04:02:53.918Z,17.36
2022-08-23T04:03:53.905Z,17.35
2022-08-23T04:04:53.917Z,17.32
2022-08-23T04:05:53.866Z,17.30
2022-08-23T04:06:53.880Z,17.28
2022-08-23T04:07:53.864Z,17.27
2022-08-23T04:08:53.878Z,17.25
2022-08-23T04:09:55.422Z,17.25
2022-08-23T04:10:53.848Z,17.24
2022-08-23T04:11:53.807Z,17.22
2022-08-23T04:12:53.814Z,17.22
2022-08-23T04:13:53.802Z,17.21
2022-08-23T04:14:53.814Z,17.21
2022-08-23T04:15:53.775Z,17.18
2022-08-23T04:16:53.791Z,17.18
2022-08-23T04:17:53.773Z,17.17
2022-08-23T04:18:53.730Z,17.17
2022-08-23T04:19:53.743Z,17.14
2022-08-23T04:20:53.730Z,17.14
2022-08-23T04:21:53.733Z,17.14
2022-08-23T04:22:53.700Z,17.12
2022-08-23T04:23:53.680Z,17.14
2022-08-23T04:24:53.681Z,17.10
2022-08-23T04:25:53.661Z,17.09
2022-08-23T04:26:53.662Z,17.07
2022-08-23T04:27:53.672Z,17.06
2022-08-23T04:28:53.632Z,17.06
2022-08-23T04:29:53.613Z,17.02
2022-08-23T04:30:53.612Z,17.00
2022-08-23T04:31:53.593Z,17.02
2022-08-23T04:32:53.642Z,17.02
2022-08-23T04:33:53.590Z,17.02
2022-08-23T04:34:53.560Z,17.00
2022-08-23T04:35:53.545Z,17.02
2022-08-23T04:36:55.164Z,17.02
2022-08-23T04:37:53.538Z,17.00
2022-08-23T04:38:53.524Z,16.99
2022-08-23T04:39:53.990Z,16.98
2022-08-23T04:40:53.523Z,16.98
2022-08-23T04:41:53.475Z,16.96
2022-08-23T04:42:53.477Z,16.98
2022-08-23T04:43:53.526Z,16.98
2022-08-23T04:44:53.463Z,16.95
2022-08-23T04:45:53.486Z,16.95
2022-08-23T04:46:53.446Z,16.95
2022-08-23T04:47:53.446Z,16.92
2022-08-23T04:48:53.427Z,16.92
2022-08-23T04:49:53.418Z,16.95
2022-08-23T04:50:53.427Z,16.96
2022-08-23T04:51:53.880Z,16.99
2022-08-23T04:52:53.367Z,16.99
2022-08-23T04:53:53.360Z,17.03
2022-08-23T04:54:53.349Z,17.02
2022-08-23T04:55:53.356Z,17.03
2022-08-23T04:56:53.380Z,17.05
2022-08-23T04:57:53.416Z,17.05
2022-08-23T04:58:53.329Z,17.09
2022-08-23T04:59:53.311Z,17.07
2022-08-23T05:00:53.342Z,17.12
2022-08-23T05:01:53.273Z,17.14
2022-08-23T05:02:53.283Z,17.15
2022-08-23T05:03:53.280Z,17.17
2022-08-23T05:04:53.261Z,17.17
2022-08-23T05:05:53.234Z,17.20
2022-08-23T05:06:53.229Z,17.21
2022-08-23T05:07:53.203Z,17.24
2022-08-23T05:08:53.192Z,17.24
2022-08-23T05:09:53.202Z,17.27
2022-08-23T05:10:53.192Z,17.28
2022-08-23T05:11:53.171Z,17.30
2022-08-23T05:12:53.152Z,17.33
2022-08-23T05:13:53.169Z,17.32
2022-08-23T05:14:53.152Z,17.33
2022-08-23T05:15:53.133Z,17.33
2022-08-23T05:16:53.124Z,17.33
2022-08-23T05:17:53.113Z,17.33
2022-08-23T05:18:53.104Z,17.33
2022-08-23T05:19:53.091Z,17.35
2022-08-23T05:20:53.084Z,17.36
2022-08-23T05:21:56.880Z,17.36
2022-08-23T05:22:53.046Z,17.38
2022-08-23T05:23:54.982Z,17.38
2022-08-23T05:24:53.049Z,17.39
2022-08-23T05:25:53.283Z,17.38
2022-08-23T05:26:53.077Z,17.40
2022-08-23T05:27:53.006Z,17.39
2022-08-23T05:28:53.086Z,17.39
2022-08-23T05:29:52.977Z,17.39
2022-08-23T05:30:56.383Z,17.39
2022-08-23T05:31:52.977Z,17.40
2022-08-23T05:32:52.977Z,17.42
2022-08-23T05:33:53.034Z,17.42
2022-08-23T05:34:52.941Z,17.42
2022-08-23T05:35:52.920Z,17.43
2022-08-23T05:36:55.534Z,17.42
2022-08-23T05:37:52.908Z,17.42
2022-08-23T05:38:52.969Z,17.43
2022-08-23T05:39:52.951Z,17.43
2022-08-23T05:40:55.151Z,17.43
2022-08-23T05:41:52.878Z,17.45
2022-08-23T05:42:52.850Z,17.46
2022-08-23T05:43:52.898Z,17.47
2022-08-23T05:44:52.850Z,17.51
2022-08-23T05:45:53.140Z,17.53
2022-08-23T05:46:52.816Z,17.53
2022-08-23T05:47:52.820Z,17.54
2022-08-23T05:48:52.792Z,17.57
2022-08-23T05:49:52.808Z,17.58
2022-08-23T05:50:52.760Z,17.62
2022-08-23T05:51:52.822Z,17.62
2022-08-23T05:52:52.745Z,17.62
2022-08-23T05:53:52.762Z,17.65
2022-08-23T05:54:52.712Z,17.66
2022-08-23T05:55:52.783Z,17.68
2022-08-23T05:56:52.773Z,17.71
2022-08-23T05:57:52.680Z,17.74
2022-08-23T05:58:56.545Z,17.79
2022-08-23T05:59:53.861Z,17.84
2022-08-23T06:00:52.678Z,17.91
2022-08-23T06:01:52.779Z,17.95
2022-08-23T06:02:52.625Z,18.02
2022-08-23T06:03:52.626Z,18.04
2022-08-23T06:04:57.122Z,18.07
2022-08-23T06:05:53.458Z,18.10
2022-08-23T06:06:52.594Z,18.13
2022-08-23T06:07:52.665Z,18.14
2022-08-23T06:08:52.577Z,18.20
2022-08-23T06:09:52.578Z,18.23
2022-08-23T06:10:52.564Z,18.26
2022-08-23T06:11:52.567Z,18.28
2022-08-23T06:12:52.706Z,18.28
2022-08-23T06:13:52.564Z,18.32
2022-08-23T06:14:52.681Z,18.34
2022-08-23T06:15:52.486Z,18.35
2022-08-23T06:16:55.761Z,18.36
2022-08-23T06:17:52.459Z,18.41
2022-08-23T06:18:52.458Z,18.44
2022-08-23T06:19:52.449Z,18.47
2022-08-23T06:20:52.474Z,18.51
2022-08-23T06:21:52.437Z,18.54
2022-08-23T06:22:52.439Z,18.57
2022-08-23T06:23:52.439Z,18.59
2022-08-23T06:24:52.491Z,18.59
2022-08-23T06:25:52.460Z,18.62
2022-08-23T06:26:52.372Z,18.64
2022-08-23T06:27:52.358Z,18.64
2022-08-23T06:28:52.390Z,18.66
2022-08-23T06:29:52.491Z,18.68
2022-08-23T06:30:52.375Z,18.71
2022-08-23T06:31:52.318Z,18.74
2022-08-23T06:32:52.436Z,18.82
2022-08-23T06:33:52.339Z,18.90
2022-08-23T06:34:52.282Z,18.99
2022-08-23T06:35:53.303Z,19.07
2022-08-23T06:36:52.263Z,19.16
2022-08-23T06:37:52.273Z,19.25
2022-08-23T06:38:52.262Z,19.38
2022-08-23T06:39:52.306Z,19.49
2022-08-23T06:40:52.223Z,19.55
2022-08-23T06:41:52.244Z,19.60
2022-08-23T06:42:52.237Z,19.60
2022-08-23T06:43:52.211Z,19.67
2022-08-23T06:44:52.254Z,19.76
2022-08-23T06:45:54.949Z,19.79
2022-08-23T06:46:53.242Z,19.80
2022-08-23T06:47:52.155Z,19.82
2022-08-23T06:48:52.205Z,19.79
2022-08-23T06:49:57.996Z,19.80
2022-08-23T06:50:53.258Z,19.79
2022-08-23T06:51:52.280Z,19.76
2022-08-23T06:52:52.085Z,19.76
2022-08-23T06:53:52.097Z,19.72
2022-08-23T06:54:52.108Z,19.71
2022-08-23T06:55:52.173Z,19.71
2022-08-23T06:56:52.050Z,19.68
2022-08-23T06:57:52.074Z,19.70
2022-08-23T06:58:52.158Z,19.72
2022-08-23T06:59:52.110Z,19.79
2022-08-23T07:00:56.767Z,19.86
2022-08-23T07:01:53.133Z,19.94
2022-08-23T07:02:52.100Z,20.02
2022-08-23T07:03:52.689Z,20.08
2022-08-23T07:04:52.009Z,20.08
2022-08-23T07:05:53.623Z,20.12
2022-08-23T07:06:51.949Z,20.19
2022-08-23T07:07:53.510Z,20.25
2022-08-23T07:08:51.943Z,20.30
2022-08-23T07:09:52.620Z,20.37
2022-08-23T07:10:51.952Z,20.48
2022-08-23T07:11:52.679Z,20.58
2022-08-23T07:12:51.891Z,20.68
2022-08-23T07:13:52.871Z,20.76
2022-08-23T07:14:51.897Z,20.82
2022-08-23T07:15:52.594Z,20.79
2022-08-23T07:16:51.863Z,20.76
2022-08-23T07:17:51.981Z,20.75
2022-08-23T07:18:51.811Z,20.71
2022-08-23T07:19:52.167Z,20.68
2022-08-23T07:20:51.839Z,20.66
2022-08-23T07:21:51.939Z,20.68
2022-08-23T07:22:51.781Z,20.71
2022-08-23T07:23:51.824Z,20.75
2022-08-23T07:24:51.795Z,20.75
2022-08-23T07:25:52.065Z,20.75
2022-08-23T07:26:51.809Z,20.76
2022-08-23T07:27:51.814Z,20.83
2022-08-23T07:28:51.716Z,20.88
2022-08-23T07:29:51.695Z,20.97
2022-08-23T07:30:51.686Z,21.01
2022-08-23T07:31:51.785Z,21.03
2022-08-23T07:32:51.776Z,21.03
2022-08-23T07:33:51.680Z,21.03
2022-08-23T07:34:51.658Z,21.01
2022-08-23T07:35:51.665Z,21.03
2022-08-23T07:36:51.608Z,21.05
2022-08-23T07:37:51.639Z,21.03
2022-08-23T07:38:52.518Z,21.05
2022-08-23T07:39:51.612Z,21.05
2022-08-23T07:40:54.156Z,21.06
2022-08-23T07:41:51.598Z,21.06
2022-08-23T07:42:51.868Z,21.06
2022-08-23T07:43:51.569Z,21.06
2022-08-23T07:44:51.731Z,21.05
2022-08-23T07:45:51.723Z,21.03
2022-08-23T07:46:51.606Z,21.08
2022-08-23T07:47:51.529Z,21.11
2022-08-23T07:48:54.272Z,21.15
2022-08-23T07:49:51.541Z,21.16
2022-08-23T07:50:57.832Z,21.19
2022-08-23T07:51:52.461Z,21.22
2022-08-23T07:52:51.484Z,21.24
2022-08-23T07:53:51.472Z,21.30
2022-08-23T07:54:51.473Z,21.36
2022-08-23T07:55:51.472Z,21.38
2022-08-23T07:56:51.401Z,21.40
2022-08-23T07:57:51.502Z,21.40
2022-08-23T07:58:51.413Z,21.42
2022-08-23T07:59:51.396Z,21.43
2022-08-23T08:00:51.374Z,21.45
2022-08-23T08:01:51.369Z,21.48
2022-08-23T08:02:51.468Z,21.51
2022-08-23T08:03:51.352Z,21.55
2022-08-23T08:04:51.344Z,21.58
2022-08-23T08:05:51.367Z,21.61
2022-08-23T08:07:10.471Z,21.61
2022-08-23T08:07:52.296Z,21.66
2022-08-23T08:08:51.305Z,21.68
2022-08-23T08:09:51.305Z,21.73
2022-08-23T08:10:51.269Z,21.73
2022-08-23T08:11:51.256Z,21.79
2022-08-23T08:12:51.267Z,21.82
2022-08-23T08:13:51.224Z,21.85
2022-08-23T08:14:51.237Z,21.86
2022-08-23T08:15:51.335Z,21.90
2022-08-23T08:16:51.198Z,21.93
2022-08-23T08:17:51.195Z,21.96
2022-08-23T08:18:51.239Z,22.01
2022-08-23T08:19:51.239Z,22.05
2022-08-23T08:20:51.151Z,22.09
2022-08-23T08:21:51.372Z,22.15
2022-08-23T08:22:56.427Z,22.24
2022-08-23T08:23:52.120Z,22.27
2022-08-23T08:24:51.110Z,22.30
2022-08-23T08:25:51.120Z,22.36
2022-08-23T08:26:51.120Z,22.38
2022-08-23T08:27:51.162Z,22.39
2022-08-23T08:28:51.081Z,22.45
2022-08-23T08:29:51.072Z,22.54
2022-08-23T08:30:51.071Z,22.59
2022-08-23T08:31:54.126Z,22.63
2022-08-23T08:32:51.033Z,22.67
2022-08-23T08:33:51.043Z,22.70
2022-08-23T08:34:51.011Z,22.72
2022-08-23T08:35:59.228Z,22.74
2022-08-23T08:36:51.990Z,22.78
2022-08-23T08:37:50.991Z,22.89
2022-08-23T08:38:53.299Z,23.01
2022-08-23T08:39:50.977Z,23.06
2022-08-23T08:40:50.993Z,23.11
2022-08-23T08:41:58.568Z,23.12
2022-08-23T08:42:51.925Z,23.15
2022-08-23T08:43:50.923Z,23.18
2022-08-23T08:44:50.896Z,23.18
2022-08-23T08:45:56.147Z,23.16
2022-08-23T08:46:51.970Z,23.16
2022-08-23T08:47:50.941Z,23.19
2022-08-23T08:48:50.875Z,23.22
2022-08-23T08:49:50.870Z,23.25
2022-08-23T08:50:50.910Z,23.32
2022-08-23T08:51:50.887Z,23.34
2022-08-23T08:52:50.835Z,23.35
2022-08-23T08:53:50.800Z,23.39
2022-08-23T08:54:53.237Z,23.44
2022-08-23T08:55:50.868Z,23.50
2022-08-23T08:56:50.790Z,23.56
2022-08-23T08:57:50.800Z,23.57
2022-08-23T08:58:50.786Z,23.60
2022-08-23T08:59:50.740Z,23.64
2022-08-23T09:00:56.723Z,23.71
2022-08-23T09:01:50.775Z,23.71
2022-08-23T09:02:51.434Z,23.75
2022-08-23T09:03:50.867Z,23.78
2022-08-23T09:04:52.302Z,23.79
2022-08-23T09:05:50.772Z,23.84
2022-08-23T09:06:51.392Z,23.87
2022-08-23T09:07:50.714Z,23.89
2022-08-23T09:08:50.821Z,23.92
2022-08-23T09:09:50.670Z,23.93
2022-08-23T09:10:51.414Z,23.92
2022-08-23T09:11:50.692Z,23.93
2022-08-23T09:12:50.873Z,23.96
2022-08-23T09:13:50.625Z,23.97
2022-08-23T09:14:51.315Z,24.02
2022-08-23T09:15:50.992Z,24.11
2022-08-23T09:16:50.617Z,24.18
2022-08-23T09:17:50.595Z,24.21
2022-08-23T09:18:50.708Z,24.26
2022-08-23T09:19:50.546Z,24.29
2022-08-23T09:20:50.507Z,24.33
2022-08-23T09:21:50.514Z,24.33
2022-08-23T09:22:50.517Z,24.36
2022-08-23T09:24:00.516Z,24.36
2022-08-23T09:24:51.497Z,24.36
2022-08-23T09:25:50.458Z,24.41
2022-08-23T09:26:50.454Z,24.45
2022-08-23T09:27:50.499Z,24.49
2022-08-23T09:28:50.419Z,24.53
2022-08-23T09:29:50.420Z,24.55
2022-08-23T09:30:50.420Z,24.61
2022-08-23T09:31:50.503Z,24.66
2022-08-23T09:32:50.409Z,24.67
2022-08-23T09:33:50.420Z,24.68
2022-08-23T09:34:50.393Z,24.70
2022-08-23T09:35:50.351Z,24.75
2022-08-23T09:36:52.243Z,24.83
2022-08-23T09:37:50.361Z,24.87
2022-08-23T09:38:50.343Z,24.93
2022-08-23T09:39:50.356Z,25.01
2022-08-23T09:40:50.331Z,25.02
2022-08-23T09:41:50.323Z,25.01
2022-08-23T09:42:50.271Z,25.05
2022-08-23T09:43:50.335Z,25.08
2022-08-23T09:44:50.283Z,25.11
2022-08-23T09:45:50.243Z,25.14
2022-08-23T09:46:50.314Z,25.16
2022-08-23T09:47:50.225Z,25.17
2022-08-23T09:48:50.225Z,25.24
2022-08-23T09:49:50.222Z,25.29
2022-08-23T09:50:50.220Z,25.30
2022-08-23T09:51:50.245Z,25.30
2022-08-23T09:52:50.187Z,25.35
2022-08-23T09:53:50.197Z,25.38
2022-08-23T09:54:50.157Z,25.41
2022-08-23T09:55:50.143Z,25.42
2022-08-23T09:56:50.127Z,25.46
2022-08-23T09:57:50.117Z,25.49
2022-08-23T09:58:50.188Z,25.53
2022-08-23T09:59:50.142Z,25.57
2022-08-23T10:00:50.107Z,25.59
2022-08-23T10:01:50.145Z,25.63
2022-08-23T10:02:50.089Z,25.66
2022-08-23T10:03:50.141Z,25.69
2022-08-23T10:04:50.145Z,25.75
2022-08-23T10:05:50.042Z,25.79
2022-08-23T10:06:50.068Z,25.82
2022-08-23T10:07:50.031Z,25.83
2022-08-23T10:08:50.002Z,25.86
2022-08-23T10:09:50.079Z,25.89
2022-08-23T10:10:50.909Z,25.91
2022-08-23T10:11:49.965Z,25.96
2022-08-23T10:12:49.952Z,26.00
2022-08-23T10:13:49.993Z,26.08
2022-08-23T10:14:49.954Z,26.13
2022-08-23T10:15:49.962Z,26.20
2022-08-23T10:16:49.933Z,26.28
2022-08-23T10:17:49.904Z,26.31
2022-08-23T10:18:49.955Z,26.36
2022-08-23T10:19:49.924Z,26.36
2022-08-23T10:20:49.867Z,26.41
2022-08-23T10:21:49.896Z,26.41
2022-08-23T10:22:49.866Z,26.44
2022-08-23T10:23:49.857Z,26.47
2022-08-23T10:24:49.867Z,26.50
2022-08-23T10:25:49.899Z,26.49
2022-08-23T10:26:49.849Z,26.50
2022-08-23T10:27:49.827Z,26.53
2022-08-23T10:28:49.808Z,26.51
2022-08-23T10:29:49.768Z,26.56
2022-08-23T10:30:49.810Z,26.65
2022-08-23T10:31:49.982Z,26.71
2022-08-23T10:32:49.771Z,26.76
2022-08-23T10:33:49.740Z,26.84
2022-08-23T10:34:50.705Z,26.88
2022-08-23T10:35:49.711Z,26.87
2022-08-23T10:36:50.998Z,26.88
2022-08-23T10:37:49.700Z,26.91
2022-08-23T10:38:49.792Z,26.96
2022-08-23T10:39:49.728Z,26.97
2022-08-23T10:40:49.672Z,27.01
2022-08-23T10:41:49.661Z,27.05
2022-08-23T10:42:49.691Z,27.08
2022-08-23T10:43:49.656Z,27.09
2022-08-23T10:44:49.713Z,27.12
2022-08-23T10:45:49.775Z,27.18
2022-08-23T10:46:49.710Z,27.21
2022-08-23T10:47:49.625Z,27.24
2022-08-23T10:48:49.617Z,27.28
2022-08-23T10:49:49.572Z,27.33
2022-08-23T10:50:56.248Z,27.35
2022-08-23T10:51:51.762Z,27.40
2022-08-23T10:52:49.546Z,27.43
2022-08-23T10:53:49.597Z,27.45
2022-08-23T10:54:49.583Z,27.46
2022-08-23T10:55:49.556Z,27.48
2022-08-23T10:56:51.376Z,27.49
2022-08-23T10:57:49.517Z,27.52
2022-08-23T10:58:49.528Z,27.58
2022-08-23T10:59:49.518Z,27.59
2022-08-23T11:00:49.469Z,27.61
2022-08-23T11:01:49.524Z,27.63
2022-08-23T11:02:49.548Z,27.66
2022-08-23T11:03:49.420Z,27.68
2022-08-23T11:04:49.457Z,27.69
2022-08-23T11:05:49.401Z,27.76
2022-08-23T11:06:49.422Z,27.77
2022-08-23T11:07:49.475Z,27.81
2022-08-23T11:08:49.381Z,27.84
2022-08-23T11:09:50.957Z,27.86
2022-08-23T11:10:53.758Z,27.88
2022-08-23T11:11:50.362Z,27.90
2022-08-23T11:12:49.334Z,27.98
2022-08-23T11:13:49.324Z,28.06
2022-08-23T11:14:49.353Z,28.13
2022-08-23T11:15:49.412Z,28.17
2022-08-23T11:16:49.308Z,28.21
2022-08-23T11:17:49.371Z,28.25
2022-08-23T11:18:49.269Z,28.27
2022-08-23T11:19:49.285Z,28.30
2022-08-23T11:20:49.256Z,28.35
2022-08-23T11:21:49.280Z,28.40
2022-08-23T11:22:49.267Z,28.45
2022-08-23T11:23:49.358Z,28.43
2022-08-23T11:24:49.223Z,28.39
2022-08-23T11:25:49.361Z,28.40
2022-08-23T11:26:49.235Z,28.42
2022-08-23T11:27:49.198Z,28.46
2022-08-23T11:28:49.209Z,28.54
2022-08-23T11:29:49.203Z,28.58
2022-08-23T11:30:49.230Z,28.65
2022-08-23T11:31:49.208Z,28.72
2022-08-23T11:32:49.170Z,28.74
2022-08-23T11:33:49.141Z,28.83
2022-08-23T11:34:49.151Z,28.92
2022-08-23T11:35:49.113Z,29.02
2022-08-23T11:36:49.097Z,29.08
2022-08-23T11:37:49.093Z,29.17
2022-08-23T11:38:49.083Z,29.25
2022-08-23T11:39:49.121Z,29.30
2022-08-23T11:40:49.074Z,29.37
2022-08-23T11:41:49.054Z,29.39
2022-08-23T11:42:49.033Z,29.48
2022-08-23T11:43:49.014Z,29.54
2022-08-23T11:44:49.037Z,29.64
2022-08-23T11:45:49.022Z,29.64
2022-08-23T11:46:49.005Z,29.67
2022-08-23T11:47:48.982Z,29.76
2022-08-23T11:48:49.039Z,29.86
2022-08-23T11:49:48.945Z,29.94
2022-08-23T11:50:51.898Z,30.01
2022-08-23T11:51:49.927Z,30.04
2022-08-23T11:52:48.918Z,30.08
2022-08-23T11:53:48.937Z,30.06
2022-08-23T11:54:48.918Z,30.04
2022-08-23T11:55:48.887Z,30.08
2022-08-23T11:56:48.909Z,30.19
2022-08-23T11:57:48.932Z,30.25
2022-08-23T11:58:48.880Z,30.29
2022-08-23T11:59:48.861Z,30.36
2022-08-23T12:00:48.831Z,30.40
2022-08-23T12:01:48.821Z,30.49
2022-08-23T12:02:48.985Z,30.56
2022-08-23T12:03:49.008Z,30.64
2022-08-23T12:04:48.792Z,30.75
2022-08-23T12:05:48.794Z,30.83
2022-08-23T12:06:51.240Z,30.91
2022-08-23T12:07:48.775Z,30.98
2022-08-23T12:08:48.773Z,30.97
2022-08-23T12:09:48.768Z,31.00
2022-08-23T12:10:48.754Z,30.96
2022-08-23T12:11:48.717Z,31.04
2022-08-23T12:12:48.764Z,31.16
2022-08-23T12:13:48.695Z,31.34
2022-08-23T12:14:48.687Z,31.50
2022-08-23T12:15:48.729Z,31.69
2022-08-23T12:16:49.930Z,31.92
2022-08-23T12:17:49.502Z,32.05
2022-08-23T12:18:48.646Z,32.25
2022-08-23T12:19:48.901Z,32.49
2022-08-23T12:20:48.792Z,32.80
2022-08-23T12:21:48.635Z,33.26
2022-08-23T12:22:48.601Z,33.96
2022-08-23T12:23:48.588Z,34.73
2022-08-23T12:24:52.386Z,35.65
2022-08-23T12:25:48.583Z,36.64
2022-08-23T12:26:48.590Z,37.62
2022-08-23T12:27:48.571Z,38.67
2022-08-23T12:28:48.569Z,39.68
2022-08-23T12:29:48.562Z,40.76
2022-08-23T12:30:48.590Z,41.80
2022-08-23T12:31:48.575Z,42.68
2022-08-23T12:32:48.505Z,43.36
2022-08-23T12:33:48.492Z,44.09
2022-08-23T12:34:48.526Z,44.66
2022-08-23T12:35:48.684Z,45.13
2022-08-23T12:36:48.505Z,45.34
2022-08-23T12:37:48.477Z,45.76
2022-08-23T12:38:48.457Z,46.21
2022-08-23T12:39:48.467Z,46.75
2022-08-23T12:40:48.447Z,47.50
2022-08-23T12:41:48.445Z,48.20
2022-08-23T12:42:48.438Z,48.69
2022-08-23T12:43:48.439Z,49.06
2022-08-23T12:44:48.498Z,49.50
2022-08-23T12:45:48.506Z,49.94
2022-08-23T12:46:48.458Z,50.38
2022-08-23T12:47:48.360Z,50.84
2022-08-23T12:48:48.361Z,51.26
2022-08-23T12:49:48.360Z,51.60
2022-08-23T12:50:48.397Z,51.89
2022-08-23T12:51:48.348Z,52.30
2022-08-23T12:52:48.363Z,52.57
2022-08-23T12:53:48.312Z,52.77
2022-08-23T12:54:48.332Z,53.11